Time,TemperatureF,DewpointF,PressureIn,WindDirection,WindDirectionDegrees,WindSpeedMPH,WindSpeedGustMPH,Humidity,HourlyPrecipIn,Conditions,Clouds,dailyrainin,SolarRadiationWatts/m^2,SoftwareType,DateUTC
2013-02-20 00:01:00,61.0,50.0,-100.00,ENE,74,1.0,13.0,68,0.00,,,0.00,0.000000,,2013-02-20 10:01:00,
2013-02-20 00:12:00,61.0,50.0,-100.00,ENE,74,1.0,13.0,68,0.00,,,0.00,0.000000,,2013-02-20 10:12:00,
2013-02-20 00:21:00,61.0,50.0,-100.00,ENE,74,1.0,13.0,68,0.00,,,0.00,0.000000,,2013-02-20 10:21:00,
2013-02-20 00:31:00,61.0,50.0,-100.00,ENE,74,1.0,13.0,68,0.00,,,0.00,0.000000,,2013-02-20 10:31:00,
2013-02-20 01:02:00,62.0,53.0,-100.00,SE,128,1.0,12.0,73,0.00,,,0.00,0.000000,,2013-02-20 11:02:00,
2013-02-20 01:11:00,62.0,53.0,-100.00,SE,128,1.0,12.0,73,0.00,,,0.00,0.000000,,2013-02-20 11:11:00,
2013-02-20 01:21:00,62.0,53.0,-100.00,SE,128,1.0,12.0,73,0.00,,,0.00,0.000000,,2013-02-20 11:21:00,
2013-02-20 01:31:00,62.0,53.0,-100.00,SE,128,1.0,12.0,73,0.00,,,0.00,0.000000,,2013-02-20 11:31:00,
2013-02-20 02:01:00,62.0,52.0,-100.00,East,99,4.0,13.0,71,0.00,,,0.00,0.000000,,2013-02-20 12:01:00,
2013-02-20 02:12:00,62.0,52.0,-100.00,East,99,4.0,13.0,71,0.00,,,0.00,0.000000,,2013-02-20 12:12:00,
2013-02-20 02:21:00,62.0,52.0,-100.00,East,99,4.0,13.0,71,0.00,,,0.00,0.000000,,2013-02-20 12:21:00,
2013-02-20 02:31:00,62.0,52.0,-100.00,East,99,4.0,13.0,71,0.00,,,0.00,0.000000,,2013-02-20 12:31:00,
2013-02-20 03:01:00,61.0,52.0,-100.00,SW,223,0.0,11.0,72,0.00,,,0.00,0.000000,,2013-02-20 13:01:00,
2013-02-20 03:11:00,61.0,52.0,-100.00,SW,223,0.0,11.0,72,0.00,,,0.00,0.000000,,2013-02-20 13:11:00,
2013-02-20 03:22:00,61.0,52.0,-100.00,SW,223,0.0,11.0,72,0.00,,,0.00,0.000000,,2013-02-20 13:22:00,
2013-02-20 03:31:00,61.0,52.0,-100.00,SW,223,0.0,11.0,72,0.00,,,0.00,0.000000,,2013-02-20 13:31:00,
2013-02-20 04:01:00,59.0,53.0,-100.00,NNE,16,0.0,7.0,81,0.00,,,0.00,0.000000,,2013-02-20 14:01:00,
2013-02-20 04:11:00,59.0,53.0,-100.00,NNE,16,0.0,7.0,81,0.00,,,0.00,0.000000,,2013-02-20 14:11:00,
2013-02-20 04:21:00,59.0,53.0,-100.00,NNE,16,0.0,7.0,81,0.00,,,0.00,0.000000,,2013-02-20 14:21:00,
2013-02-20 04:32:00,59.0,53.0,-100.00,NNE,16,0.0,7.0,81,0.00,,,0.00,0.000000,,2013-02-20 14:32:00,
2013-02-20 05:01:00,59.0,54.0,-100.00,NNW,337,0.0,0.0,83,0.00,,,0.00,0.000000,,2013-02-20 15:01:00,
2013-02-20 05:11:00,59.0,54.0,-100.00,NNW,337,0.0,0.0,83,0.00,,,0.00,0.000000,,2013-02-20 15:11:00,
2013-02-20 05:22:00,59.0,54.0,-100.00,NNW,337,0.0,0.0,83,0.00,,,0.00,0.000000,,2013-02-20 15:22:00,
2013-02-20 05:31:00,59.0,54.0,-100.00,NNW,337,0.0,0.0,83,0.00,,,0.00,0.000000,,2013-02-20 15:31:00,
2013-02-20 06:01:00,59.0,56.0,-100.00,NNW,346,0.0,0.0,90,0.00,,,0.00,0.000000,,2013-02-20 16:01:00,
2013-02-20 06:11:00,59.0,56.0,-100.00,NNW,346,0.0,0.0,90,0.00,,,0.00,0.000000,,2013-02-20 16:11:00,
2013-02-20 06:21:00,59.0,56.0,-100.00,NNW,346,0.0,0.0,90,0.00,,,0.00,0.000000,,2013-02-20 16:21:00,
2013-02-20 06:32:00,59.0,56.0,-100.00,NNW,346,0.0,0.0,90,0.00,,,0.00,0.000000,,2013-02-20 16:32:00,
2013-02-20 07:01:00,60.0,57.0,-100.00,North,358,1.0,6.0,89,0.00,,,0.00,0.000000,,2013-02-20 17:01:00,
2013-02-20 07:11:00,60.0,57.0,-100.00,North,358,1.0,6.0,89,0.00,,,0.00,0.000000,,2013-02-20 17:11:00,
2013-02-20 07:21:00,60.0,57.0,-100.00,North,358,1.0,6.0,89,0.00,,,0.00,0.000000,,2013-02-20 17:21:00,
2013-02-20 07:32:00,60.0,57.0,-100.00,North,358,1.0,6.0,89,0.00,,,0.00,0.000000,,2013-02-20 17:32:00,
2013-02-20 07:52:00,59.0,55.0,-100.00,North,9,0.0,0.0,86,0.00,,,0.00,5.000000,,2013-02-20 17:52:00,
2013-02-20 08:02:00,59.0,55.0,-100.00,North,9,0.0,0.0,86,0.00,,,0.00,5.000000,,2013-02-20 18:02:00,
2013-02-20 08:11:00,59.0,55.0,-100.00,North,9,0.0,0.0,86,0.00,,,0.00,5.000000,,2013-02-20 18:11:00,
2013-02-20 08:21:00,59.0,55.0,-100.00,North,9,0.0,0.0,86,0.00,,,0.00,5.000000,,2013-02-20 18:21:00,
2013-02-20 08:31:00,59.0,55.0,-100.00,North,9,0.0,0.0,86,0.00,,,0.00,5.000000,,2013-02-20 18:31:00,
2013-02-20 09:01:00,65.0,54.0,-100.00,SE,131,0.0,9.0,68,0.00,,,0.00,163.000000,,2013-02-20 19:01:00,
2013-02-20 09:11:00,65.0,54.0,-100.00,SE,131,0.0,9.0,68,0.00,,,0.00,163.000000,,2013-02-20 19:11:00,
2013-02-20 09:21:00,65.0,54.0,-100.00,SE,131,0.0,9.0,68,0.00,,,0.00,163.000000,,2013-02-20 19:21:00,
2013-02-20 09:31:00,65.0,54.0,-100.00,SE,131,0.0,9.0,68,0.00,,,0.00,163.000000,,2013-02-20 19:31:00,
2013-02-20 10:01:00,68.0,54.0,-100.00,ESE,105,4.0,15.0,61,0.00,,,0.00,387.000000,,2013-02-20 20:01:00,
2013-02-20 10:11:00,68.0,54.0,-100.00,ESE,105,4.0,15.0,61,0.00,,,0.00,387.000000,,2013-02-20 20:11:00,
2013-02-20 10:21:00,68.0,54.0,-100.00,ESE,105,4.0,15.0,61,0.00,,,0.00,387.000000,,2013-02-20 20:21:00,
2013-02-20 10:31:00,68.0,54.0,-100.00,ESE,105,4.0,15.0,61,0.00,,,0.00,387.000000,,2013-02-20 20:31:00,
2013-02-20 10:51:00,71.0,57.0,-100.00,ESE,107,1.0,11.0,61,0.00,,,0.00,552.000000,,2013-02-20 20:51:00,
2013-02-20 11:01:00,71.0,57.0,-100.00,ESE,107,1.0,11.0,61,0.00,,,0.00,552.000000,,2013-02-20 21:01:00,
2013-02-20 11:11:00,71.0,57.0,-100.00,ESE,107,1.0,11.0,61,0.00,,,0.00,552.000000,,2013-02-20 21:11:00,
2013-02-20 11:21:00,71.0,57.0,-100.00,ESE,107,1.0,11.0,61,0.00,,,0.00,552.000000,,2013-02-20 21:21:00,
2013-02-20 11:31:00,71.0,57.0,-100.00,ESE,107,1.0,11.0,61,0.00,,,0.00,552.000000,,2013-02-20 21:31:00,
2013-02-20 11:52:00,69.0,58.0,-100.00,NE,53,1.0,14.0,69,0.00,,,0.00,595.000000,,2013-02-20 21:52:00,
2013-02-20 12:01:00,69.0,58.0,-100.00,NE,53,1.0,14.0,69,0.00,,,0.00,595.000000,,2013-02-20 22:01:00,
2013-02-20 12:11:00,69.0,58.0,-100.00,NE,53,1.0,14.0,69,0.00,,,0.00,595.000000,,2013-02-20 22:11:00,
2013-02-20 12:21:00,69.0,58.0,-100.00,NE,53,1.0,14.0,69,0.00,,,0.00,595.000000,,2013-02-20 22:21:00,
2013-02-20 12:31:00,69.0,58.0,-100.00,NE,53,1.0,14.0,69,0.00,,,0.00,595.000000,,2013-02-20 22:31:00,
2013-02-20 13:12:00,71.0,57.0,-100.00,ENE,64,9.0,16.0,61,0.00,,,-99.99,551.000000,,2013-02-20 23:12:00,
2013-02-20 13:22:00,71.0,57.0,-100.00,ENE,64,9.0,16.0,61,0.00,,,-99.99,551.000000,,2013-02-20 23:22:00,
2013-02-20 13:31:00,71.0,57.0,-100.00,ENE,64,9.0,16.0,61,0.00,,,-99.99,551.000000,,2013-02-20 23:31:00,
2013-02-20 13:52:00,72.0,56.0,-100.00,ESE,106,3.0,20.0,58,0.00,,,0.00,671.000000,,2013-02-20 23:52:00,
2013-02-20 14:02:00,72.0,56.0,-100.00,ESE,106,3.0,20.0,58,0.00,,,0.00,671.000000,,2013-02-21 00:02:00,
2013-02-20 14:11:00,72.0,56.0,-100.00,ESE,106,3.0,20.0,58,0.00,,,0.00,671.000000,,2013-02-21 00:11:00,
2013-02-20 14:21:00,72.0,56.0,-100.00,ESE,106,3.0,20.0,58,0.00,,,0.00,671.000000,,2013-02-21 00:21:00,
2013-02-20 14:31:00,72.0,56.0,-100.00,ESE,106,3.0,20.0,58,0.00,,,0.00,671.000000,,2013-02-21 00:31:00,
2013-02-20 14:52:00,74.0,55.0,-100.00,East,94,9.0,19.0,52,0.00,,,0.00,668.000000,,2013-02-21 00:52:00,
2013-02-20 15:01:00,74.0,55.0,-100.00,East,94,9.0,19.0,52,0.00,,,0.00,668.000000,,2013-02-21 01:01:00,
2013-02-20 15:11:00,74.0,55.0,-100.00,East,94,9.0,19.0,52,0.00,,,0.00,668.000000,,2013-02-21 01:11:00,
2013-02-20 15:21:00,74.0,55.0,-100.00,East,94,9.0,19.0,52,0.00,,,0.00,668.000000,,2013-02-21 01:21:00,
2013-02-20 15:32:00,74.0,55.0,-100.00,East,94,9.0,19.0,52,0.00,,,0.00,668.000000,,2013-02-21 01:32:00,
2013-02-20 15:52:00,74.0,55.0,-100.00,ESE,108,6.0,18.0,51,0.00,,,0.00,791.000000,,2013-02-21 01:52:00,
2013-02-20 16:01:00,74.0,55.0,-100.00,ESE,108,6.0,18.0,51,0.00,,,0.00,791.000000,,2013-02-21 02:01:00,
2013-02-20 16:11:00,74.0,55.0,-100.00,ESE,108,6.0,18.0,51,0.00,,,0.00,791.000000,,2013-02-21 02:11:00,
2013-02-20 16:21:00,74.0,55.0,-100.00,ESE,108,6.0,18.0,51,0.00,,,0.00,791.000000,,2013-02-21 02:21:00,
2013-02-20 16:32:00,74.0,55.0,-100.00,ESE,108,6.0,18.0,51,0.00,,,0.00,791.000000,,2013-02-21 02:32:00,
2013-02-20 17:01:00,72.0,55.0,-100.00,ENE,66,8.0,19.0,55,0.00,,,0.00,496.000000,,2013-02-21 03:01:00,
2013-02-20 17:11:00,72.0,55.0,-100.00,ENE,66,8.0,19.0,55,0.00,,,0.00,496.000000,,2013-02-21 03:11:00,
2013-02-20 17:21:00,72.0,55.0,-100.00,ENE,66,8.0,19.0,55,0.00,,,0.00,496.000000,,2013-02-21 03:21:00,
2013-02-20 17:31:00,72.0,55.0,-100.00,ENE,66,8.0,19.0,55,0.00,,,0.00,496.000000,,2013-02-21 03:31:00,
2013-02-20 18:01:00,69.0,52.0,-100.00,ESE,106,7.0,19.0,54,0.00,,,0.00,351.000000,,2013-02-21 04:01:00,
2013-02-20 18:11:00,69.0,52.0,-100.00,ESE,106,7.0,19.0,54,0.00,,,0.00,351.000000,,2013-02-21 04:11:00,
2013-02-20 18:21:00,69.0,52.0,-100.00,ESE,106,7.0,19.0,54,0.00,,,0.00,351.000000,,2013-02-21 04:21:00,
2013-02-20 18:31:00,69.0,52.0,-100.00,ESE,106,7.0,19.0,54,0.00,,,0.00,351.000000,,2013-02-21 04:31:00,
2013-02-20 18:52:00,65.0,50.0,-100.00,East,84,8.0,16.0,59,0.00,,,0.00,122.000000,,2013-02-21 04:52:00,
2013-02-20 19:02:00,65.0,50.0,-100.00,East,84,8.0,16.0,59,0.00,,,0.00,122.000000,,2013-02-21 05:02:00,
2013-02-20 19:12:00,65.0,50.0,-100.00,East,84,8.0,16.0,59,0.00,,,0.00,122.000000,,2013-02-21 05:12:00,
2013-02-20 19:22:00,65.0,50.0,-100.00,East,84,8.0,16.0,59,0.00,,,0.00,122.000000,,2013-02-21 05:22:00,
2013-02-20 19:32:00,65.0,50.0,-100.00,East,84,8.0,16.0,59,0.00,,,0.00,122.000000,,2013-02-21 05:32:00,
2013-02-20 19:59:00,63.0,51.0,-100.00,East,87,5.0,16.0,64,0.00,,,0.00,2.000000,,2013-02-21 05:59:00,
2013-02-20 20:01:00,63.0,51.0,-100.00,East,87,5.0,16.0,64,0.00,,,0.00,2.000000,,2013-02-21 06:01:00,
2013-02-20 20:11:00,63.0,51.0,-100.00,East,87,5.0,16.0,64,0.00,,,0.00,2.000000,,2013-02-21 06:11:00,
2013-02-20 20:21:00,63.0,51.0,-100.00,East,87,5.0,16.0,64,0.00,,,0.00,2.000000,,2013-02-21 06:21:00,
2013-02-20 20:31:00,63.0,51.0,-100.00,East,87,5.0,16.0,64,0.00,,,0.00,2.000000,,2013-02-21 06:31:00,
2013-02-20 20:51:00,63.0,50.0,-100.00,ENE,76,5.0,17.0,63,0.00,,,0.00,0.000000,,2013-02-21 06:51:00,
2013-02-20 21:01:00,63.0,50.0,-100.00,ENE,76,5.0,17.0,63,0.00,,,0.00,0.000000,,2013-02-21 07:01:00,
2013-02-20 21:11:00,63.0,50.0,-100.00,ENE,76,5.0,17.0,63,0.00,,,0.00,0.000000,,2013-02-21 07:11:00,
2013-02-20 21:21:00,63.0,50.0,-100.00,ENE,76,5.0,17.0,63,0.00,,,0.00,0.000000,,2013-02-21 07:21:00,
2013-02-20 21:31:00,63.0,50.0,-100.00,ENE,76,5.0,17.0,63,0.00,,,0.00,0.000000,,2013-02-21 07:31:00,
2013-02-20 21:52:00,63.0,50.0,-100.00,East,95,11.0,22.0,63,0.00,,,0.00,0.000000,,2013-02-21 07:52:00,
2013-02-20 22:01:00,63.0,50.0,-100.00,East,95,11.0,22.0,63,0.00,,,0.00,0.000000,,2013-02-21 08:01:00,
2013-02-20 22:11:00,63.0,50.0,-100.00,East,95,11.0,22.0,63,0.00,,,0.00,0.000000,,2013-02-21 08:11:00,
2013-02-20 22:21:00,63.0,50.0,-100.00,East,95,11.0,22.0,63,0.00,,,0.00,0.000000,,2013-02-21 08:21:00,
2013-02-20 22:31:00,63.0,50.0,-100.00,East,95,11.0,22.0,63,0.00,,,0.00,0.000000,,2013-02-21 08:31:00,
2013-02-20 22:52:00,63.0,51.0,-100.00,ENE,78,3.0,21.0,66,0.00,,,0.00,0.000000,,2013-02-21 08:52:00,
2013-02-20 23:01:00,63.0,51.0,-100.00,ENE,78,3.0,21.0,66,0.00,,,0.00,0.000000,,2013-02-21 09:01:00,
2013-02-20 23:11:00,63.0,51.0,-100.00,ENE,78,3.0,21.0,66,0.00,,,0.00,0.000000,,2013-02-21 09:11:00,
2013-02-20 23:22:00,63.0,51.0,-100.00,ENE,78,3.0,21.0,66,0.00,,,0.00,0.000000,,2013-02-21 09:22:00,
2013-02-20 23:31:00,63.0,51.0,-100.00,ENE,78,3.0,21.0,66,0.00,,,0.00,0.000000,,2013-02-21 09:31:00,
2013-02-20 23:52:00,63.0,51.0,-100.00,ENE,76,9.0,17.0,64,0.00,,,0.00,0.000000,,2013-02-21 09:52:00,